NCAR-RAP Real-Time Weather Data

Output produced by METARs form (12 May 2021  12:05 UTC)
found at http://weather.rap.ucar.edu/surface/
 
KCAR 121154Z AUTO 01010KT 10SM OVC016 06/02 A2989 RMK AO2 SLP130 60000 70047 T00560017 10072 20044 53026
KCAR 121054Z AUTO 35009KT 10SM OVC018 05/01 A2986 RMK AO2 SLP121 T00500011
KCAR 120954Z AUTO 36010KT 10SM OVC015 05/02 A2984 RMK AO2 SLP112 T00500017
KCAR 120854Z AUTO 35008KT 10SM BKN012 OVC030 05/02 A2981 RMK AO2 RAB27E39 SLP102 P0000 60000 T00500022 51010
KCAR 120852Z AUTO 35009KT 10SM BKN012 OVC030 05/02 A2981 RMK AO2 RAB27E39 P0000
KCAR 120803Z AUTO 01009KT 10SM BKN028 OVC036 05/02 A2980 RMK AO2 T00500022
KCAR 120754Z AUTO 01010KT 10SM SCT028 OVC038 05/02 A2980 RMK AO2 RAE01 SLP097 P0000 T00500022
KCAR 120733Z AUTO 01010KT 10SM SCT008 OVC040 05/03 A2979 RMK AO2 RAE01 P0000 T00500028
KCAR 120716Z AUTO 36010KT 10SM SCT005 BKN009 OVC046 06/03 A2979 RMK AO2 RAE01 P0000 T00560028
KCAR 120654Z AUTO 35009KT 10SM -RA OVC005 06/03 A2978 RMK AO2 RAE06B34 SLP092 P0000 T00610033
KCAR 120622Z AUTO 01007KT 10SM BKN007 OVC014 07/06 A2978 RMK AO2 RAE06 P0000 T00720056
KCAR 120613Z AUTO 01005KT 10SM SCT007 OVC014 07/06 A2978 RMK AO2 RAE06 P0000 T00720056
KCAR 120602Z AUTO 36006KT 10SM -RA BKN014 BKN048 OVC060 07/06 A2978 RMK AO2 P0000 T00720056
KCAR 120554Z AUTO 36005KT 10SM -RA SCT014 BKN037 OVC060 07/06 A2978 RMK AO2 SLP090 P0001 60012 T00720056 10089 20072 51003
KCAR 120454Z AUTO 04004KT 10SM -RA OVC050 08/06 A2978 RMK AO2 SLP088 P0001 T00780056 401670044
KCAR 120354Z AUTO 03007KT 10SM -RA FEW010 SCT049 OVC060 08/06 A2977 RMK AO2 SLP088 P0001 T00780056
KCAR 120254Z AUTO 02008KT 10SM -RA FEW034 SCT048 OVC065 08/06 A2977 RMK AO2 RAE25B48 SLP086 P0001 60009 T00830061 58001
KCAR 120154Z AUTO 02006KT 10SM -RA FEW007 BKN030 OVC034 08/07 A2978 RMK AO2 SLP090 P0004 T00830067
KCAR 120137Z AUTO 03003KT 10SM -RA SCT008 BKN022 OVC028 08/06 A2978 RMK AO2 P0003 T00830061
KCAR 120118Z AUTO 02005KT 10SM -RA FEW016 BKN022 OVC043 08/06 A2978 RMK AO2 P0002 T00830061
KCAR 120054Z AUTO 17004KT 9SM -RA OVC043 08/06 A2976 RMK AO2 SLP084 P0004 T00830061
KCAR 112354Z AUTO 36007KT 7SM -RA OVC040 09/06 A2977 RMK AO2 SLP087 P0004 60019 T00890061 10106 20083 58000
KCAR 112254Z AUTO 03007KT 10SM -RA FEW011 BKN045 OVC055 09/06 A2977 RMK AO2 SLP089 P0003 T00890061
KCAR 112154Z AUTO VRB05KT 9SM -RA OVC045 09/06 A2977 RMK AO2 RAB06 SLP088 P0003 T00940061
KCAR 112054Z AUTO 08006KT 10SM BKN045 OVC055 10/06 A2977 RMK AO2 RAE23 SLP088 P0001 60009 T01000061 56005
KCAR 111954Z AUTO 03005KT 10SM -RA OVC046 11/07 A2977 RMK AO2 SLP088 P0004 T01060072